Time;durP1;ratioP1;P1;durP2;ratioP2;P2;SDS_P1;SDS_P2;PMS_P1;PMS_P2;Temp;Humidity;BMP_temperature;BMP_pressure;BME280_temperature;BME280_humidity;BME280_pressure;Samples;Min_cycle;Max_cycle;Signal;HPM_P1;HPM_P2
2023/03/20 00:02:03;;;;;;;26.27;12.68;;;;;;;9.12;90.73;101479.47;5147075;27;20043;-54
2023/03/20 00:04:30;;;;;;;28.17;13.07;;;;;;;9.18;90.70;101486.91;5152367;27;20046;-54
2023/03/20 00:06:56;;;;;;;28.75;12.85;;;;;;;8.91;91.11;101489.16;5128820;27;20054;-54
2023/03/20 00:09:25;;;;;;;26.25;12.15;;;;;;;8.78;90.97;101495.44;5152108;27;20050;-53
2023/03/20 00:11:54;;;;;;;28.05;12.32;;;;;;;8.81;91.04;101492.56;5147391;27;20051;-54
2023/03/20 00:14:23;;;;;;;24.27;11.45;;;;;;;8.81;91.02;101497.03;5152222;27;20067;-54
2023/03/20 00:16:50;;;;;;;25.83;12.15;;;;;;;8.79;91.54;101502.44;5146810;27;20043;-55
2023/03/20 00:19:22;;;;;;;25.30;11.10;;;;;;;8.83;91.36;101503.88;5143977;27;20075;-54
2023/03/20 00:21:49;;;;;;;24.73;11.35;;;;;;;8.79;91.13;101502.44;5123310;27;20044;-54
2023/03/20 00:24:16;;;;;;;22.95;10.90;;;;;;;8.76;91.20;101504.50;5131175;28;20116;-53
2023/03/20 00:26:45;;;;;;;22.13;10.13;;;;;;;8.60;90.56;101497.78;5126469;28;20477;-54
2023/03/20 00:29:23;;;;;;;24.35;10.77;;;;;;;8.74;89.94;101496.66;5131066;27;20516;-53
2023/03/20 00:31:50;;;;;;;21.83;9.85;;;;;;;8.69;89.98;101493.56;5126384;27;20164;-57
2023/03/20 00:34:19;;;;;;;28.05;10.10;;;;;;;8.70;89.83;101497.88;5112711;28;20059;-53
2023/03/20 00:36:46;;;;;;;21.13;10.20;;;;;;;8.80;90.41;101498.84;5125821;27;20401;-54
2023/03/20 00:39:13;;;;;;;22.55;10.32;;;;;;;8.72;90.11;101498.59;5130648;28;20040;-54
2023/03/20 00:41:46;;;;;;;23.95;10.43;;;;;;;8.75;90.03;101495.72;5126202;27;20496;-54
2023/03/20 00:44:37;;;;;;;20.58;10.25;;;;;;;8.70;90.05;101505.81;5130651;28;20047;-54
2023/03/20 00:47:16;;;;;;;21.92;10.43;;;;;;;8.72;89.69;101505.72;5125721;27;20039;-54
2023/03/20 00:49:46;;;;;;;23.38;10.95;;;;;;;8.76;90.44;101507.97;5130350;27;20043;-54
2023/03/20 00:52:15;;;;;;;22.67;10.27;;;;;;;8.82;90.46;101509.28;5125906;28;20050;-54
2023/03/20 00:54:42;;;;;;;24.88;10.75;;;;;;;8.94;90.17;101502.16;5130336;28;20055;-54
2023/03/20 00:57:26;;;;;;;23.80;10.40;;;;;;;8.95;89.84;101495.88;5107359;28;20101;-54
2023/03/20 00:59:58;;;;;;;22.95;11.00;;;;;;;8.96;89.92;101492.28;5129722;27;20044;-55
2023/03/20 01:02:25;;;;;;;;;;;;;;;8.99;89.17;101489.41;5125708;27;20055;-54
2023/03/20 01:04:52;;;;;;;23.80;11.15;;;;;;;9.00;89.11;101493.72;5142968;27;19923;-54
2023/03/20 01:07:19;;;;;;;24.95;11.80;;;;;;;9.03;89.53;101490.81;5138038;27;20061;-55
2023/03/20 01:09:46;;;;;;;26.85;11.75;;;;;;;8.85;89.75;101490.50;5137111;27;20100;-55
2023/03/20 01:12:15;;;;;;;29.67;11.85;;;;;;;8.92;89.66;101477.63;5132674;27;20047;-54
2023/03/20 01:14:42;;;;;;;24.65;11.73;;;;;;;8.83;89.39;101476.56;5137116;27;20046;-55
2023/03/20 01:17:17;;;;;;;26.20;12.02;;;;;;;8.73;90.31;101475.63;5102416;27;20096;-54
2023/03/20 01:19:43;;;;;;;26.08;11.25;;;;;;;8.70;90.31;101478.53;5132758;27;20079;-55
2023/03/20 01:22:10;;;;;;;26.77;12.70;;;;;;;8.82;89.98;101474.88;5107905;28;20444;-55
2023/03/20 01:24:37;;;;;;;22.55;11.30;;;;;;;8.95;88.00;101478.22;5098207;28;20051;-54
2023/03/20 01:27:17;;;;;;;23.58;12.45;;;;;;;8.85;89.15;101479.94;5111620;28;20036;-55
2023/03/20 01:29:45;;;;;;;26.92;12.55;;;;;;;8.93;88.91;101472.22;5116383;28;20047;-54
2023/03/20 01:32:16;;;;;;;23.83;11.52;;;;;;;8.78;89.14;101468.16;5111612;28;20062;-54
2023/03/20 01:34:46;;;;;;;22.75;10.85;;;;;;;8.55;89.66;101473.53;5115997;28;20039;-54
2023/03/20 01:37:21;;;;;;;23.92;11.70;;;;;;;8.60;90.15;101470.50;5111313;28;20400;-54
2023/03/20 01:39:49;;;;;;;27.55;11.77;;;;;;;8.57;90.02;101463.66;5116078;28;20071;-54
2023/03/20 01:42:17;;;;;;;26.60;11.57;;;;;;;8.43;91.72;101454.16;5111503;28;20100;-54
2023/03/20 01:44:44;;;;;;;24.75;12.30;;;;;;;8.40;91.73;101462.34;5115957;28;20046;-55
2023/03/20 01:47:19;;;;;;;25.55;11.55;;;;;;;8.49;91.81;101454.66;5111105;28;20047;-55
2023/03/20 01:50:28;;;;;;;25.67;11.50;;;;;;;8.49;91.23;101454.66;5115742;28;20122;-54
2023/03/20 01:53:08;;;;;;;24.90;11.63;;;;;;;8.34;93.15;101452.22;5110994;28;20058;-55
2023/03/20 01:55:42;;;;;;;27.20;12.65;;;;;;;8.37;91.77;101459.94;5115292;28;20127;-55
2023/03/20 01:58:16;;;;;;;26.60;12.55;;;;;;;8.30;92.35;101463.19;5110791;28;20401;-54
2023/03/20 02:00:47;;;;;;;28.05;12.73;;;;;;;8.25;92.13;101464.38;5115464;28;20081;-54
2023/03/20 02:03:16;;;;;;;27.27;12.13;;;;;;;8.25;93.00;101471.47;5110670;28;20104;-55
2023/03/20 02:06:05;;;;;;;25.33;12.30;;;;;;;8.26;92.97;101465.22;5114971;28;20044;-55
2023/03/20 02:08:52;;;;;;;24.35;11.98;;;;;;;8.40;92.30;101472.03;5114541;28;20089;-55
2023/03/20 02:11:22;;;;;;;31.05;13.05;;;;;;;8.40;92.04;101478.19;5113120;28;20031;-54
2023/03/20 02:13:53;;;;;;;28.55;13.23;;;;;;;8.18;92.22;101478.19;5114136;28;20036;-54
2023/03/20 02:16:20;;;;;;;28.60;12.88;;;;;;;8.11;93.44;101480.47;5112888;28;20051;-54
2023/03/20 02:18:56;;;;;;;27.13;13.10;;;;;;;8.04;93.32;101479.25;5113923;28;20035;-54
2023/03/20 02:22:03;;;;;;;29.83;13.98;;;;;;;8.03;93.46;101472.31;5112249;28;20044;-54
2023/03/20 02:24:54;;;;;;;28.55;13.00;;;;;;;8.01;94.23;101464.50;5111491;28;20040;-54
2023/03/20 02:27:36;;;;;;;28.48;13.48;;;;;;;7.99;94.64;101455.84;5112035;28;20093;-54
2023/03/20 02:30:34;;;;;;;30.88;13.23;;;;;;;8.05;94.58;101459.81;5115109;28;20058;-54
2023/03/20 02:33:33;;;;;;;28.17;13.38;;;;;;;8.07;93.51;101460.53;5095133;28;20564;-54
2023/03/20 02:36:39;;;;;;;28.08;12.68;;;;;;;8.04;93.97;101464.28;5114288;28;20516;-54
2023/03/20 02:39:35;;;;;;;29.52;12.52;;;;;;;8.01;94.44;101464.50;5110012;28;20077;-55
2023/03/20 02:42:13;;;;;;;27.15;12.35;;;;;;;7.96;94.40;101450.81;5114509;28;20040;-55
2023/03/20 02:44:57;;;;;;;26.25;12.18;;;;;;;7.98;94.51;101459.44;5110340;28;20112;-54
2023/03/20 02:47:31;;;;;;;32.90;13.57;;;;;;;7.94;94.77;101471.22;5113536;28;20187;-55
2023/03/20 02:50:36;;;;;;;30.55;13.13;;;;;;;7.83;95.05;101476.50;5114260;28;20032;-55
2023/03/20 02:53:34;;;;;;;28.00;12.93;;;;;;;7.87;95.72;101485.84;5109821;28;20066;-55
2023/03/20 02:56:11;;;;;;;28.02;13.13;;;;;;;7.87;95.23;101481.41;5113549;28;20452;-55
2023/03/20 02:58:54;;;;;;;33.95;13.98;;;;;;;7.83;95.55;101476.50;5110418;28;20047;-56
2023/03/20 03:01:42;;;;;;;33.38;14.10;;;;;;;7.82;96.25;101473.03;5113446;28;20104;-54
2023/03/20 03:04:16;;;;;;;30.38;13.68;;;;;;;7.79;95.22;101473.25;5109894;28;20040;-54
2023/03/20 03:06:46;;;;;;;31.48;14.25;;;;;;;7.84;94.77;101476.38;5114093;28;20180;-54
2023/03/20 03:09:37;;;;;;;31.80;14.05;;;;;;;7.77;95.97;101482.25;5109567;28;20043;-54
2023/03/20 03:12:24;;;;;;;29.87;13.83;;;;;;;7.79;95.98;101481.19;5113978;28;20048;-55
2023/03/20 03:14:56;;;;;;;33.05;13.40;;;;;;;7.89;95.73;101478.66;5111421;28;20156;-54
2023/03/20 03:17:28;;;;;;;30.80;13.70;;;;;;;7.93;96.26;101477.47;5125819;27;20129;-55
2023/03/20 03:19:57;;;;;;;;;;;;;;;7.98;95.32;101467.38;5128286;27;20046;-53
2023/03/20 03:22:25;;;;;;;31.52;13.07;;;;;;;8.00;95.13;101443.47;5111889;28;19996;-55
2023/03/20 03:24:53;;;;;;;30.98;13.20;;;;;;;7.98;95.52;101440.94;5089577;28;20035;-54
2023/03/20 03:27:39;;;;;;;31.55;13.55;;;;;;;7.98;94.66;101443.59;5113572;28;20036;-54
2023/03/20 03:30:16;;;;;;;30.65;14.30;;;;;;;7.95;95.20;101435.94;5109118;28;20036;-55
2023/03/20 03:33:06;;;;;;;33.55;14.05;;;;;;;7.91;95.34;101442.38;5114068;28;20051;-54
2023/03/20 03:35:33;;;;;;;35.00;14.45;;;;;;;7.96;94.42;101469.28;5108838;28;20052;-55
2023/03/20 03:38:10;;;;;;;33.78;13.95;;;;;;;7.86;94.06;101463.91;5113734;28;20051;-55
2023/03/20 03:40:44;;;;;;;36.15;14.23;;;;;;;7.92;93.49;101467.84;5109418;28;20039;-55
2023/03/20 03:43:19;;;;;;;29.85;13.00;;;;;;;7.99;93.91;101477.00;5113660;28;20051;-55
2023/03/20 03:45:56;;;;;;;30.75;13.77;;;;;;;8.03;93.84;101477.59;5109262;28;20389;-54
2023/03/20 03:48:32;;;;;;;32.88;13.45;;;;;;;7.92;93.67;101481.06;5113643;28;20389;-54
2023/03/20 03:51:06;;;;;;;30.38;13.55;;;;;;;7.91;93.02;101471.44;5108970;28;20043;-54
2023/03/20 03:53:42;;;;;;;31.42;13.10;;;;;;;7.95;93.66;101480.84;5113687;28;20545;-54
2023/03/20 03:56:13;;;;;;;31.42;13.35;;;;;;;7.90;94.29;101477.72;5108626;28;20512;-55
2023/03/20 03:58:44;;;;;;;29.40;14.70;;;;;;;8.03;92.96;101480.25;5113483;28;20458;-54
2023/03/20 04:01:13;;;;;;;31.80;14.32;;;;;;;7.79;92.56;101475.91;5109105;28;20039;-55
2023/03/20 04:03:47;;;;;;;30.90;15.18;;;;;;;7.86;93.35;101476.28;5113298;28;20044;-55
2023/03/20 04:06:16;;;;;;;36.42;14.65;;;;;;;7.85;92.71;101470.13;5109681;28;20040;-55
2023/03/20 04:08:43;;;;;;;35.10;14.00;;;;;;;7.82;93.46;101466.88;5113441;28;20051;-55
2023/03/20 04:11:27;;;;;;;31.55;13.95;;;;;;;7.69;92.67;101478.41;5108801;28;20054;-55
2023/03/20 04:13:55;;;;;;;30.00;13.77;;;;;;;7.55;93.34;101483.03;5109354;28;20044;-54
2023/03/20 04:16:23;;;;;;;29.88;13.88;;;;;;;7.72;92.42;101477.31;5112939;28;20439;-55
2023/03/20 04:18:51;;;;;;;31.20;14.40;;;;;;;7.68;92.20;101470.59;5112583;28;20477;-55
2023/03/20 04:21:18;;;;;;;32.10;13.35;;;;;;;7.75;90.83;101465.66;5110594;28;20542;-54
2023/03/20 04:23:45;;;;;;;34.45;13.57;;;;;;;7.61;91.10;101469.38;5113348;28;20044;-54
2023/03/20 04:26:13;;;;;;;28.63;13.15;;;;;;;7.52;92.63;101465.63;5105932;28;20451;-56
2023/03/20 04:28:39;;;;;;;28.75;13.30;;;;;;;7.49;92.58;101458.81;5113126;28;20051;-55
2023/03/20 04:31:27;;;;;;;26.80;12.85;;;;;;;7.59;91.05;101451.00;5108773;28;20055;-55
2023/03/20 04:34:04;;;;;;;29.33;13.02;;;;;;;7.58;91.50;101445.84;5113370;28;20072;-54
2023/03/20 04:36:50;;;;;;;26.50;11.48;;;;;;;7.60;90.55;101447.41;5108192;28;20044;-55
2023/03/20 04:39:18;;;;;;;29.08;12.98;;;;;;;7.50;92.52;101443.78;5113365;28;20131;-54
2023/03/20 04:41:46;;;;;;;27.13;12.23;;;;;;;7.62;91.30;101452.56;5108915;28;20043;-55
2023/03/20 04:44:12;;;;;;;30.45;12.65;;;;;;;7.64;90.23;101462.06;5117088;28;20085;-54
2023/03/20 04:46:43;;;;;;;24.42;11.93;;;;;;;7.62;90.61;101456.06;5112522;28;20040;-55
2023/03/20 04:49:14;;;;;;;27.10;12.35;;;;;;;7.60;90.55;101450.03;5116945;28;20438;-55
2023/03/20 04:51:41;;;;;;;26.20;12.00;;;;;;;7.56;90.21;101459.16;5112531;28;20067;-55
2023/03/20 04:54:10;;;;;;;28.88;12.65;;;;;;;7.54;90.22;101458.44;5117039;28;20048;-55
2023/03/20 04:56:36;;;;;;;23.58;11.38;;;;;;;7.45;91.38;101457.31;5111703;28;20051;-54
2023/03/20 04:59:11;;;;;;;26.92;11.35;;;;;;;7.43;90.26;101459.25;5116992;28;20486;-55
2023/03/20 05:01:38;;;;;;;24.65;11.18;;;;;;;7.46;90.82;101452.91;5111271;28;20093;-55
2023/03/20 05:04:05;;;;;;;25.17;11.38;;;;;;;7.45;91.36;101453.84;5116906;28;20044;-55
2023/03/20 05:06:34;;;;;;;28.52;12.00;;;;;;;7.48;90.98;101443.91;5112193;28;20552;-55
2023/03/20 05:09:01;;;;;;;25.88;12.02;;;;;;;7.47;91.18;101450.13;5116698;28;20158;-55
2023/03/20 05:11:30;;;;;;;24.23;11.57;;;;;;;7.47;90.93;101451.94;5111773;28;20523;-54
2023/03/20 05:14:06;;;;;;;29.02;11.93;;;;;;;7.41;90.79;101450.59;5116561;28;20100;-55
2023/03/20 05:16:42;;;;;;;28.55;11.88;;;;;;;7.50;91.17;101444.63;5109948;27;20511;-54
2023/03/20 05:19:19;;;;;;;22.73;11.45;;;;;;;7.48;90.32;101451.00;5114839;27;20074;-55
2023/03/20 05:22:06;;;;;;;27.02;12.00;;;;;;;7.41;91.73;101450.59;5112102;28;20059;-54
2023/03/20 05:24:52;;;;;;;26.02;12.10;;;;;;;7.41;91.52;101452.41;5112653;28;20500;-55
2023/03/20 05:27:32;;;;;;;30.23;12.63;;;;;;;7.43;91.25;101450.50;5116094;28;20093;-55
2023/03/20 05:30:19;;;;;;;29.92;12.80;;;;;;;7.36;91.42;101451.91;5111749;28;20556;-55
2023/03/20 05:33:06;;;;;;;31.15;13.25;;;;;;;7.45;91.33;101459.97;5100652;28;20085;-54
2023/03/20 05:35:45;;;;;;;31.02;12.95;;;;;;;7.39;91.83;101463.09;5111361;28;20077;-55
2023/03/20 05:38:21;;;;;;;29.35;14.40;;;;;;;7.37;92.34;101458.84;5099298;28;20036;-54
2023/03/20 05:41:08;;;;;;;30.23;13.35;;;;;;;7.33;93.22;101460.91;5111409;28;20111;-55
2023/03/20 05:43:54;;;;;;;32.25;13.85;;;;;;;7.20;93.40;101454.84;5100646;28;20048;-55
2023/03/20 05:46:36;;;;;;;32.43;14.23;;;;;;;7.20;94.67;101460.13;5111159;28;20040;-57
2023/03/20 05:49:23;;;;;;;32.70;14.52;;;;;;;7.25;95.27;101460.63;5115450;28;20288;-55
2023/03/20 05:52:10;;;;;;;31.83;14.38;;;;;;;7.19;95.11;101461.94;5113316;28;20047;-55
2023/03/20 05:54:47;;;;;;;38.90;15.27;;;;;;;7.17;94.17;101458.56;5094555;28;20043;-53
2023/03/20 05:57:22;;;;;;;37.55;15.43;;;;;;;7.15;95.44;101463.13;5115027;28;20039;-54
2023/03/20 06:00:00;;;;;;;38.00;15.20;;;;;;;7.20;95.48;101458.31;5125944;27;20917;-54
2023/03/20 06:02:46;;;;;;;38.08;15.68;;;;;;;7.21;95.15;101459.19;5110388;28;20130;-54
2023/03/20 06:05:34;;;;;;;38.60;14.65;;;;;;;7.20;96.11;101453.06;5091115;28;20051;-54
2023/03/20 06:08:02;;;;;;;35.60;14.38;;;;;;;7.22;95.00;101463.50;5110572;28;20044;-53
2023/03/20 06:10:29;;;;;;;37.30;15.13;;;;;;;7.20;94.74;101455.69;5106227;28;20054;-57
2023/03/20 06:12:59;;;;;;;34.47;14.40;;;;;;;7.18;95.37;101460.25;5110925;28;20097;-55
2023/03/20 06:15:27;;;;;;;38.65;14.15;;;;;;;7.15;95.29;101452.56;5106320;28;20398;-54
2023/03/20 06:18:01;;;;;;;32.17;14.18;;;;;;;7.24;94.56;101453.66;5110378;28;20448;-55
2023/03/20 06:20:28;;;;;;;34.92;14.75;;;;;;;7.18;95.00;101460.25;5088154;28;20036;-55
2023/03/20 06:22:55;;;;;;;31.13;14.18;;;;;;;7.13;95.77;101456.28;5090014;28;20048;-56
2023/03/20 06:25:22;;;;;;;35.80;14.82;;;;;;;7.11;95.82;101451.97;5085217;28;20498;-54
2023/03/20 06:27:49;;;;;;;34.63;15.20;;;;;;;7.14;95.72;101461.44;5086563;28;20091;-54
2023/03/20 06:30:16;;;;;;;34.03;14.02;;;;;;;7.06;96.28;101462.00;5072013;28;20040;-55
2023/03/20 06:32:45;;;;;;;33.47;13.30;;;;;;;7.21;94.76;101456.56;5085228;28;20175;-54
2023/03/20 06:35:13;;;;;;;35.15;14.48;;;;;;;7.12;95.74;101452.78;5089908;28;20498;-55
2023/03/20 06:37:43;;;;;;;35.63;14.98;;;;;;;7.06;95.96;101454.09;5084767;28;20056;-55
2023/03/20 06:40:15;;;;;;;35.08;13.52;;;;;;;7.14;95.72;101460.59;5089470;28;20119;-56
2023/03/20 06:42:41;;;;;;;36.50;14.13;;;;;;;7.17;95.37;101458.56;5084849;28;20071;-55
2023/03/20 06:45:10;;;;;;;42.13;13.73;;;;;;;7.04;95.64;101466.56;5089284;28;20044;-55
2023/03/20 06:47:55;;;;;;;30.73;12.75;;;;;;;7.16;95.50;101466.59;5084771;28;20401;-55
2023/03/20 06:50:23;;;;;;;36.28;13.10;;;;;;;7.32;94.79;101479.50;5088980;28;20037;-55
2023/03/20 06:52:51;;;;;;;34.35;12.45;;;;;;;7.33;94.51;101489.94;5084306;28;20446;-55
2023/03/20 06:55:33;;;;;;;30.90;11.65;;;;;;;7.35;92.45;101492.44;5089016;28;20374;-55
2023/03/20 06:58:01;;;;;;;34.35;12.43;;;;;;;7.40;93.27;101500.88;5080674;28;20056;-56
2023/03/20 07:00:29;;;;;;;27.40;10.82;;;;;;;7.45;92.60;101504.84;5068831;28;20045;-54
2023/03/20 07:02:56;;;;;;;26.38;10.85;;;;;;;7.58;91.39;101502.13;5064088;28;20448;-55
2023/03/20 07:05:23;;;;;;;30.30;10.88;;;;;;;7.62;92.44;101508.00;5070772;28;20046;-53
2023/03/20 07:07:49;;;;;;;22.70;9.80;;;;;;;7.76;89.76;101513.09;5081655;28;20048;-55
2023/03/20 07:10:16;;;;;;;25.10;10.70;;;;;;;7.74;90.09;101522.94;5063656;28;20075;-55
2023/03/20 07:12:49;;;;;;;22.48;9.85;;;;;;;7.69;89.39;101514.53;5070859;28;20053;-56
2023/03/20 07:15:17;;;;;;;29.70;10.05;;;;;;;7.71;88.98;101522.34;5076145;28;20052;-55
2023/03/20 07:17:44;;;;;;;29.60;9.93;;;;;;;7.64;88.94;101519.31;5044635;28;20083;-53
2023/03/20 07:20:11;;;;;;;26.75;9.10;;;;;;;7.67;88.00;101519.91;5054706;28;20119;-53
2023/03/20 07:22:40;;;;;;;22.88;8.85;;;;;;;7.73;87.83;101529.19;5050575;28;20049;-52
2023/03/20 07:25:15;;;;;;;30.85;9.57;;;;;;;7.77;87.38;101522.72;5055723;28;20094;-50
2023/03/20 07:27:45;;;;;;;28.25;9.00;;;;;;;7.87;87.02;101533.41;5047510;28;20055;-58
2023/03/20 07:30:12;;;;;;;21.63;8.60;;;;;;;7.84;85.50;101531.00;5038351;28;20056;-51
2023/03/20 07:32:39;;;;;;;20.80;8.27;;;;;;;7.82;86.80;101527.63;5050925;28;20140;-53
2023/03/20 07:35:06;;;;;;;28.73;8.55;;;;;;;7.89;85.33;101526.22;5055162;28;20068;-53
2023/03/20 07:37:33;;;;;;;23.63;8.75;;;;;;;7.88;86.17;101525.38;5050683;28;20200;-52
2023/03/20 07:40:02;;;;;;;24.50;8.90;;;;;;;7.92;83.21;101527.78;5055356;28;20132;-53
2023/03/20 07:42:31;;;;;;;21.80;8.23;;;;;;;7.98;84.53;101520.22;5050683;28;20048;-53
2023/03/20 07:45:09;;;;;;;32.92;9.45;;;;;;;7.89;84.18;101531.50;5055285;28;20059;-51
2023/03/20 07:47:36;;;;;;;21.23;8.18;;;;;;;7.88;84.43;101540.41;5048358;28;20056;-54
2023/03/20 07:50:04;;;;;;;26.27;9.07;;;;;;;7.92;84.84;101533.06;5054039;28;20091;-51
2023/03/20 07:52:34;;;;;;;29.15;9.98;;;;;;;7.97;83.41;101534.41;5049965;28;20323;-50
2023/03/20 07:55:00;;;;;;;23.15;9.73;;;;;;;7.90;83.26;101535.00;5055076;28;20052;-51
2023/03/20 07:57:27;;;;;;;21.70;8.85;;;;;;;8.13;84.18;101538.50;5052666;28;20730;-49
2023/03/20 07:59:55;;;;;;;24.23;10.02;;;;;;;8.18;82.49;101542.47;5041556;28;20040;-52
2023/03/20 08:02:22;;;;;;;26.02;9.68;;;;;;;8.37;82.00;101543.69;5057820;28;20044;-51
2023/03/20 08:04:49;;;;;;;23.35;9.20;;;;;;;8.36;81.94;101558.69;5061012;28;20083;-52
2023/03/20 08:07:15;;;;;;;24.42;9.43;;;;;;;8.37;81.13;101548.97;5063708;28;20051;-53
2023/03/20 08:09:42;;;;;;;20.83;8.98;;;;;;;8.49;80.21;101558.59;5062400;28;20055;-50
2023/03/20 08:12:09;;;;;;;25.55;9.45;;;;;;;8.49;81.40;101547.19;5063805;28;20045;-52
2023/03/20 08:14:37;;;;;;;23.23;9.32;;;;;;;8.45;79.56;101552.72;5053847;28;20086;-53
2023/03/20 08:17:04;;;;;;;25.80;9.45;;;;;;;8.66;79.41;101554.66;5067773;28;20044;-53
2023/03/20 08:19:40;;;;;;;25.45;8.73;;;;;;;8.70;79.17;101558.72;5059415;28;20483;-50
2023/03/20 08:22:06;;;;;;;22.00;8.82;;;;;;;8.72;78.83;101558.63;5070842;28;20127;-53
2023/03/20 08:24:33;;;;;;;21.88;9.02;;;;;;;8.75;77.49;101553.91;5070551;28;20082;-51
2023/03/20 08:27:00;;;;;;;20.40;9.10;;;;;;;8.84;77.02;101558.47;5059615;28;20904;-51
2023/03/20 08:29:28;;;;;;;23.88;8.85;;;;;;;8.91;77.32;101558.81;5065584;28;20037;-51
2023/03/20 08:31:55;;;;;;;29.65;8.88;;;;;;;8.82;75.32;101563.06;5050397;28;20097;-52
2023/03/20 08:34:21;;;;;;;24.25;8.65;;;;;;;8.68;77.09;101562.44;5072909;28;20081;-49
2023/03/20 08:36:51;;;;;;;20.10;9.10;;;;;;;8.69;75.85;101557.03;5062453;28;20132;-49
2023/03/20 08:39:17;;;;;;;24.83;8.88;;;;;;;8.67;75.82;101560.78;5054984;28;20099;-50
2023/03/20 08:41:44;;;;;;;20.23;8.57;;;;;;;8.56;75.53;101558.97;5056976;28;20430;-52
2023/03/20 08:44:12;;;;;;;24.38;8.73;;;;;;;8.58;75.33;101559.69;5061338;28;20042;-49
2023/03/20 08:46:39;;;;;;;21.55;8.00;;;;;;;8.69;73.98;101566.78;5060802;28;20055;-51
2023/03/20 08:49:06;;;;;;;21.05;7.28;;;;;;;8.54;74.88;101556.44;5055960;28;20098;-51
2023/03/20 08:51:34;;;;;;;21.23;8.10;;;;;;;8.75;76.25;101564.50;5060245;28;20076;-52
2023/03/20 08:54:02;;;;;;;18.85;7.15;;;;;;;8.78;74.36;101566.88;5037232;28;20052;-51
2023/03/20 08:56:28;;;;;;;20.55;8.20;;;;;;;8.83;73.88;101562.06;5065212;28;20048;-52
2023/03/20 08:58:55;;;;;;;20.08;7.47;;;;;;;8.54;75.13;101559.09;5050878;28;20056;-52
2023/03/20 09:01:22;;;;;;;21.10;7.32;;;;;;;8.78;74.37;101571.34;5047638;28;20045;-51
2023/03/20 09:03:51;;;;;;;20.88;7.18;;;;;;;8.62;74.40;101564.63;5053586;28;20425;-52
2023/03/20 09:06:17;;;;;;;24.67;7.72;;;;;;;8.63;75.56;101568.13;5056330;28;20089;-52
2023/03/20 09:08:44;;;;;;;18.45;7.70;;;;;;;8.82;73.46;101576.28;5053044;28;20399;-52
2023/03/20 09:11:11;;;;;;;15.98;6.70;;;;;;;9.05;73.00;101568.28;5060390;28;20446;-51
2023/03/20 09:13:38;;;;;;;19.77;7.43;;;;;;;9.01;72.65;101572.16;5064985;28;20044;-51
2023/03/20 09:16:05;;;;;;;18.88;6.85;;;;;;;9.00;71.88;101573.97;5065003;28;20047;-52
2023/03/20 09:18:32;;;;;;;18.48;6.45;;;;;;;9.00;72.39;101573.09;5043760;28;20056;-52
2023/03/20 09:20:58;;;;;;;22.45;6.50;;;;;;;9.16;71.74;101562.13;5068280;28;20075;-51
2023/03/20 09:23:25;;;;;;;20.55;6.20;;;;;;;9.16;71.36;101559.47;5046790;28;20051;-52
2023/03/20 09:25:52;;;;;;;17.52;5.78;;;;;;;9.13;70.71;101565.88;5057521;28;20079;-51
2023/03/20 09:28:18;;;;;;;16.60;5.80;;;;;;;9.25;70.93;101560.53;5053012;28;20131;-49
2023/03/20 09:30:45;;;;;;;18.55;5.90;;;;;;;9.11;71.46;101569.59;5058010;28;20029;-49
2023/03/20 09:33:13;;;;;;;19.35;5.68;;;;;;;9.26;70.50;101573.66;5053874;28;20510;-48
2023/03/20 09:35:40;;;;;;;13.90;5.30;;;;;;;9.23;70.24;101568.59;5047430;28;20124;-52
2023/03/20 09:38:11;;;;;;;16.08;5.72;;;;;;;9.36;69.56;101566.63;5058479;28;20041;-50
2023/03/20 09:40:53;;;;;;;16.60;5.55;;;;;;;9.06;70.32;101569.13;5055040;28;20052;-51
2023/03/20 09:43:39;;;;;;;;;;;;;;;9.28;69.77;101569.06;5056716;28;20040;-52
2023/03/20 09:46:26;;;;;;;12.25;4.55;;;;;;;9.45;67.34;101566.84;5065533;28;19928;-50
2023/03/20 09:49:06;;;;;;;16.83;4.43;;;;;;;9.64;67.03;101563.50;5052129;28;20238;-51
2023/03/20 09:51:41;;;;;;;14.30;4.97;;;;;;;9.97;66.57;101563.34;5058145;28;20497;-51
2023/03/20 09:54:31;;;;;;;13.80;4.18;;;;;;;9.77;65.40;101567.66;5048706;28;20037;-51
2023/03/20 09:57:20;;;;;;;11.48;4.28;;;;;;;9.64;64.72;101568.81;5053119;28;20107;-51
2023/03/20 09:59:54;;;;;;;14.93;4.50;;;;;;;9.34;64.97;101567.72;5076669;28;20495;-52
2023/03/20 10:02:34;;;;;;;12.18;4.07;;;;;;;9.12;64.43;101574.78;5071629;28;20432;-52
2023/03/20 10:05:08;;;;;;;15.98;4.53;;;;;;;9.10;64.80;101576.72;5061437;28;20409;-50
2023/03/20 10:07:35;;;;;;;13.02;4.28;;;;;;;9.09;65.51;101572.38;5075297;28;20138;-51
2023/03/20 10:10:02;;;;;;;12.48;3.65;;;;;;;8.80;65.46;101580.00;5072745;28;20091;-52
2023/03/20 10:12:47;;;;;;;14.52;3.78;;;;;;;8.98;65.58;101569.75;5075916;28;20067;-50
2023/03/20 10:15:27;;;;;;;15.23;4.38;;;;;;;8.92;65.09;101578.19;5078386;28;20379;-51
2023/03/20 10:20:41;;;;;;;18.23;4.43;;;;;;;9.10;64.53;101567.94;5096617;27;20396;-51
2023/03/20 10:23:34;;;;;;;12.95;3.80;;;;;;;9.16;64.33;101570.91;5083306;28;20050;-48
2023/03/20 10:26:08;;;;;;;15.90;4.28;;;;;;;9.15;65.07;101571.03;5087085;28;20067;-51
2023/03/20 10:28:40;;;;;;;12.07;4.25;;;;;;;9.27;66.23;101555.97;5077540;28;20097;-50
2023/03/20 10:36:58;;;;;;;13.38;4.10;;;;;;;9.19;65.48;101560.06;5106984;27;20982;-49
2023/03/20 10:39:51;;;;;;;13.52;4.30;;;;;;;9.22;64.97;101561.63;5104812;27;20119;-49
2023/03/20 10:42:23;;;;;;;13.43;3.80;;;;;;;9.03;64.89;101571.06;5111986;28;20040;-51
2023/03/20 10:44:57;;;;;;;17.27;3.88;;;;;;;9.02;65.47;101564.09;5101226;28;20089;-48
2023/03/20 10:47:30;;;;;;;12.02;3.72;;;;;;;9.08;65.14;101560.13;5106004;28;20071;-49
2023/03/20 10:50:01;;;;;;;13.98;4.57;;;;;;;9.19;66.93;101556.59;5097966;28;20565;-56
2023/03/20 10:52:34;;;;;;;17.33;4.90;;;;;;;9.61;65.16;101565.44;5103798;28;20039;-53
2023/03/20 10:55:06;;;;;;;19.38;4.25;;;;;;;9.59;65.18;101559.44;5109973;27;20451;-54
2023/03/20 10:57:37;;;;;;;15.13;4.43;;;;;;;9.56;64.10;101545.59;5103341;28;20497;-54
2023/03/20 11:00:09;;;;;;;12.48;4.13;;;;;;;9.20;65.26;101556.47;5105387;28;20051;-54
2023/03/20 11:02:36;;;;;;;20.73;4.43;;;;;;;9.08;66.66;101554.81;5101546;28;20520;-54
2023/03/20 11:05:21;;;;;;;20.98;5.50;;;;;;;8.83;69.19;101554.13;5098602;28;20040;-54
2023/03/20 11:07:59;;;;;;;17.50;4.85;;;;;;;8.87;70.84;101545.97;5093225;28;20045;-54
2023/03/20 11:10:27;;;;;;;18.95;4.85;;;;;;;8.86;70.53;101542.47;5111717;28;20085;-55
2023/03/20 11:12:54;;;;;;;22.65;4.63;;;;;;;8.76;69.85;101539.72;5101422;28;20048;-54
2023/03/20 11:15:28;;;;;;;15.98;4.60;;;;;;;8.75;69.09;101543.34;5118132;28;20044;-53
2023/03/20 11:17:59;;;;;;;15.57;4.88;;;;;;;8.93;71.58;101538.38;5105051;27;20131;-54
2023/03/20 11:20:33;;;;;;;14.23;4.47;;;;;;;9.06;69.05;101532.94;5099225;28;20039;-54
2023/03/20 11:23:03;;;;;;;18.27;4.03;;;;;;;8.98;66.66;101536.19;5112119;27;20417;-54
2023/03/20 11:25:35;;;;;;;15.80;4.53;;;;;;;9.12;66.74;101524.47;5095935;28;20037;-55
2023/03/20 11:28:38;;;;;;;19.88;5.03;;;;;;;9.25;66.87;101526.13;5104559;28;20052;-54
2023/03/20 11:33:45;;;;;;;19.95;4.55;;;;;;;9.28;65.88;101526.72;5105191;27;20391;-56
2023/03/20 11:36:21;;;;;;;22.40;4.35;;;;;;;9.35;65.64;101529.69;5103651;28;20040;-54
2023/03/20 11:38:51;;;;;;;15.50;3.53;;;;;;;9.11;64.84;101522.78;5096820;28;20134;-54
2023/03/20 11:41:24;;;;;;;14.07;3.55;;;;;;;9.07;66.20;101531.94;5096798;28;20383;-53
2023/03/20 11:43:51;;;;;;;18.13;3.53;;;;;;;8.99;66.62;101531.75;5105855;28;20046;-53
2023/03/20 11:46:21;;;;;;;15.45;3.40;;;;;;;9.03;67.15;101520.78;5105172;28;20051;-54
2023/03/20 11:49:17;;;;;;;16.75;4.00;;;;;;;9.22;67.04;101529.84;5087698;28;20054;-53
2023/03/20 11:51:44;;;;;;;16.17;3.90;;;;;;;9.18;68.68;101526.59;5096292;28;20163;-55
2023/03/20 11:54:17;;;;;;;17.60;4.18;;;;;;;9.01;70.00;101528.00;5105496;28;20517;-54
2023/03/20 11:57:00;;;;;;;20.98;4.70;;;;;;;9.02;69.62;101534.97;5101662;28;20044;-55
2023/03/20 11:59:32;;;;;;;;;;;;;;;8.72;71.61;101533.00;5108547;28;20509;-54
2023/03/20 12:02:03;;;;;;;19.08;4.18;;;;;;;8.66;72.70;101528.19;5092078;28;19915;-54